sensor_id;sensor_type;location;lat;lon;timestamp;P1;durP1;ratioP1;P2;durP2;ratioP2
56752;SDS011;42627;42.646;23.642;2024-01-11T00:01:47;20.17;;;7.73;;
56752;SDS011;42627;42.646;23.642;2024-01-11T00:03:48;15.07;;;7.07;;
56752;SDS011;42627;42.646;23.642;2024-01-11T00:05:49;26.10;;;8.13;;
56752;SDS011;42627;42.646;23.642;2024-01-11T00:08:00;19.67;;;7.07;;
56752;SDS011;42627;42.646;23.642;2024-01-11T00:10:10;20.27;;;7.60;;
56752;SDS011;42627;42.646;23.642;2024-01-11T00:12:12;16.37;;;6.30;;
56752;SDS011;42627;42.646;23.642;2024-01-11T00:14:13;14.00;;;4.30;;
56752;SDS011;42627;42.646;23.642;2024-01-11T00:16:14;12.13;;;5.13;;
56752;SDS011;42627;42.646;23.642;2024-01-11T00:18:15;9.30;;;4.50;;
56752;SDS011;42627;42.646;23.642;2024-01-11T00:20:17;11.73;;;4.93;;
56752;SDS011;42627;42.646;23.642;2024-01-11T00:22:18;12.77;;;5.73;;
56752;SDS011;42627;42.646;23.642;2024-01-11T00:24:19;14.00;;;5.53;;
56752;SDS011;42627;42.646;23.642;2024-01-11T00:26:20;9.47;;;4.57;;
56752;SDS011;42627;42.646;23.642;2024-01-11T00:28:21;9.50;;;4.50;;
56752;SDS011;42627;42.646;23.642;2024-01-11T00:30:23;10.57;;;4.23;;
56752;SDS011;42627;42.646;23.642;2024-01-11T00:32:24;7.50;;;3.53;;
56752;SDS011;42627;42.646;23.642;2024-01-11T00:34:25;11.57;;;5.73;;
56752;SDS011;42627;42.646;23.642;2024-01-11T00:36:26;10.00;;;4.77;;
56752;SDS011;42627;42.646;23.642;2024-01-11T00:38:28;7.67;;;4.60;;
56752;SDS011;42627;42.646;23.642;2024-01-11T00:40:29;7.90;;;4.30;;
56752;SDS011;42627;42.646;23.642;2024-01-11T00:42:33;14.20;;;4.03;;
56752;SDS011;42627;42.646;23.642;2024-01-11T00:44:34;6.70;;;3.60;;
56752;SDS011;42627;42.646;23.642;2024-01-11T00:46:36;13.30;;;4.60;;
56752;SDS011;42627;42.646;23.642;2024-01-11T00:48:38;11.20;;;6.00;;
56752;SDS011;42627;42.646;23.642;2024-01-11T00:50:39;10.87;;;5.33;;
56752;SDS011;42627;42.646;23.642;2024-01-11T00:52:40;8.10;;;3.80;;
56752;SDS011;42627;42.646;23.642;2024-01-11T00:54:41;10.77;;;4.37;;
56752;SDS011;42627;42.646;23.642;2024-01-11T00:56:42;9.70;;;5.13;;
56752;SDS011;42627;42.646;23.642;2024-01-11T00:58:43;5.07;;;3.37;;
56752;SDS011;42627;42.646;23.642;2024-01-11T01:00:44;8.07;;;3.27;;
56752;SDS011;42627;42.646;23.642;2024-01-11T01:02:45;8.03;;;3.80;;
56752;SDS011;42627;42.646;23.642;2024-01-11T01:04:46;9.13;;;2.90;;
56752;SDS011;42627;42.646;23.642;2024-01-11T01:06:49;3.80;;;2.97;;
56752;SDS011;42627;42.646;23.642;2024-01-11T01:08:53;8.93;;;3.80;;
56752;SDS011;42627;42.646;23.642;2024-01-11T01:10:55;8.03;;;3.90;;
56752;SDS011;42627;42.646;23.642;2024-01-11T01:12:56;10.93;;;3.93;;
56752;SDS011;42627;42.646;23.642;2024-01-11T01:14:57;6.07;;;3.63;;
56752;SDS011;42627;42.646;23.642;2024-01-11T01:16:58;8.73;;;4.30;;
56752;SDS011;42627;42.646;23.642;2024-01-11T01:18:59;5.27;;;4.23;;
56752;SDS011;42627;42.646;23.642;2024-01-11T01:21:00;8.53;;;4.37;;
56752;SDS011;42627;42.646;23.642;2024-01-11T01:23:01;7.27;;;3.80;;
56752;SDS011;42627;42.646;23.642;2024-01-11T01:25:02;8.17;;;4.23;;
56752;SDS011;42627;42.646;23.642;2024-01-11T01:27:04;7.53;;;4.47;;
56752;SDS011;42627;42.646;23.642;2024-01-11T01:29:05;6.20;;;3.87;;
56752;SDS011;42627;42.646;23.642;2024-01-11T01:31:06;6.60;;;2.97;;
56752;SDS011;42627;42.646;23.642;2024-01-11T01:33:07;9.67;;;3.90;;
56752;SDS011;42627;42.646;23.642;2024-01-11T01:35:08;11.57;;;5.20;;
56752;SDS011;42627;42.646;23.642;2024-01-11T01:37:09;8.33;;;4.83;;
56752;SDS011;42627;42.646;23.642;2024-01-11T01:39:10;6.40;;;3.87;;
56752;SDS011;42627;42.646;23.642;2024-01-11T01:41:11;10.93;;;5.67;;
56752;SDS011;42627;42.646;23.642;2024-01-11T01:43:22;7.87;;;4.43;;
56752;SDS011;42627;42.646;23.642;2024-01-11T01:45:32;11.77;;;4.47;;
56752;SDS011;42627;42.646;23.642;2024-01-11T01:47:33;10.70;;;5.37;;
56752;SDS011;42627;42.646;23.642;2024-01-11T01:49:34;16.37;;;7.30;;
56752;SDS011;42627;42.646;23.642;2024-01-11T01:51:36;17.57;;;7.13;;
56752;SDS011;42627;42.646;23.642;2024-01-11T01:53:37;18.90;;;9.40;;
56752;SDS011;42627;42.646;23.642;2024-01-11T01:55:38;20.50;;;8.80;;
56752;SDS011;42627;42.646;23.642;2024-01-11T01:57:39;16.03;;;6.70;;
56752;SDS011;42627;42.646;23.642;2024-01-11T01:59:41;12.60;;;6.37;;
56752;SDS011;42627;42.646;23.642;2024-01-11T02:01:43;13.47;;;6.30;;
56752;SDS011;42627;42.646;23.642;2024-01-11T02:03:45;10.50;;;6.20;;
56752;SDS011;42627;42.646;23.642;2024-01-11T02:05:46;12.23;;;6.73;;
56752;SDS011;42627;42.646;23.642;2024-01-11T02:07:47;15.53;;;5.73;;
56752;SDS011;42627;42.646;23.642;2024-01-11T02:09:49;15.50;;;6.80;;
56752;SDS011;42627;42.646;23.642;2024-01-11T02:11:51;9.70;;;5.43;;
56752;SDS011;42627;42.646;23.642;2024-01-11T02:13:54;15.30;;;5.00;;
56752;SDS011;42627;42.646;23.642;2024-01-11T02:15:56;14.90;;;6.50;;
56752;SDS011;42627;42.646;23.642;2024-01-11T02:17:59;9.73;;;5.60;;
56752;SDS011;42627;42.646;23.642;2024-01-11T02:20:00;13.67;;;4.77;;
56752;SDS011;42627;42.646;23.642;2024-01-11T02:22:12;12.30;;;5.00;;
56752;SDS011;42627;42.646;23.642;2024-01-11T02:24:14;10.50;;;5.33;;
56752;SDS011;42627;42.646;23.642;2024-01-11T02:26:15;8.53;;;4.20;;
56752;SDS011;42627;42.646;23.642;2024-01-11T02:28:17;9.90;;;4.63;;
56752;SDS011;42627;42.646;23.642;2024-01-11T02:30:18;14.60;;;5.00;;
56752;SDS011;42627;42.646;23.642;2024-01-11T02:32:19;8.27;;;4.50;;
56752;SDS011;42627;42.646;23.642;2024-01-11T02:34:21;8.17;;;3.73;;
56752;SDS011;42627;42.646;23.642;2024-01-11T02:36:23;6.63;;;3.63;;
56752;SDS011;42627;42.646;23.642;2024-01-11T02:38:25;9.20;;;4.67;;
56752;SDS011;42627;42.646;23.642;2024-01-11T02:40:26;10.17;;;3.60;;
56752;SDS011;42627;42.646;23.642;2024-01-11T02:42:27;9.80;;;4.43;;
56752;SDS011;42627;42.646;23.642;2024-01-11T02:44:28;7.97;;;4.53;;
56752;SDS011;42627;42.646;23.642;2024-01-11T02:46:32;12.10;;;5.53;;
56752;SDS011;42627;42.646;23.642;2024-01-11T02:48:36;10.07;;;5.37;;
56752;SDS011;42627;42.646;23.642;2024-01-11T02:50:40;10.87;;;5.17;;
56752;SDS011;42627;42.646;23.642;2024-01-11T02:52:41;8.37;;;4.63;;
56752;SDS011;42627;42.646;23.642;2024-01-11T02:54:42;11.50;;;7.13;;
56752;SDS011;42627;42.646;23.642;2024-01-11T02:56:43;11.97;;;6.13;;
56752;SDS011;42627;42.646;23.642;2024-01-11T02:58:44;11.33;;;5.40;;
56752;SDS011;42627;42.646;23.642;2024-01-11T03:00:45;10.07;;;5.23;;
56752;SDS011;42627;42.646;23.642;2024-01-11T03:02:46;9.67;;;4.77;;
56752;SDS011;42627;42.646;23.642;2024-01-11T03:04:47;7.00;;;3.93;;
56752;SDS011;42627;42.646;23.642;2024-01-11T03:06:48;9.43;;;3.67;;
56752;SDS011;42627;42.646;23.642;2024-01-11T03:08:49;9.77;;;4.57;;
56752;SDS011;42627;42.646;23.642;2024-01-11T03:10:51;8.47;;;3.77;;
56752;SDS011;42627;42.646;23.642;2024-01-11T03:12:52;18.67;;;4.77;;
56752;SDS011;42627;42.646;23.642;2024-01-11T03:14:53;13.87;;;4.77;;
56752;SDS011;42627;42.646;23.642;2024-01-11T03:16:54;15.97;;;5.17;;
56752;SDS011;42627;42.646;23.642;2024-01-11T03:19:00;9.10;;;3.93;;
56752;SDS011;42627;42.646;23.642;2024-01-11T03:21:04;15.20;;;6.03;;
56752;SDS011;42627;42.646;23.642;2024-01-11T03:23:05;11.93;;;6.63;;
56752;SDS011;42627;42.646;23.642;2024-01-11T03:25:06;10.53;;;6.43;;
56752;SDS011;42627;42.646;23.642;2024-01-11T03:27:07;13.07;;;7.70;;
56752;SDS011;42627;42.646;23.642;2024-01-11T03:29:08;13.97;;;6.37;;
56752;SDS011;42627;42.646;23.642;2024-01-11T03:31:09;14.77;;;7.20;;
56752;SDS011;42627;42.646;23.642;2024-01-11T03:33:10;14.60;;;7.17;;
56752;SDS011;42627;42.646;23.642;2024-01-11T03:37:23;15.30;;;7.70;;
56752;SDS011;42627;42.646;23.642;2024-01-11T03:39:25;16.83;;;7.93;;
56752;SDS011;42627;42.646;23.642;2024-01-11T03:41:26;17.50;;;6.13;;
56752;SDS011;42627;42.646;23.642;2024-01-11T03:43:27;12.87;;;6.70;;
56752;SDS011;42627;42.646;23.642;2024-01-11T03:45:28;17.93;;;8.70;;
56752;SDS011;42627;42.646;23.642;2024-01-11T03:47:29;16.53;;;7.57;;
56752;SDS011;42627;42.646;23.642;2024-01-11T03:49:30;16.23;;;8.57;;
56752;SDS011;42627;42.646;23.642;2024-01-11T03:51:31;24.63;;;8.80;;
56752;SDS011;42627;42.646;23.642;2024-01-11T03:53:36;15.67;;;8.47;;
56752;SDS011;42627;42.646;23.642;2024-01-11T03:55:38;12.97;;;6.73;;
56752;SDS011;42627;42.646;23.642;2024-01-11T03:57:39;9.33;;;5.40;;
56752;SDS011;42627;42.646;23.642;2024-01-11T03:59:40;12.50;;;6.20;;
56752;SDS011;42627;42.646;23.642;2024-01-11T04:01:41;15.00;;;7.33;;
56752;SDS011;42627;42.646;23.642;2024-01-11T04:03:43;22.57;;;6.70;;
56752;SDS011;42627;42.646;23.642;2024-01-11T04:05:44;19.43;;;9.57;;
56752;SDS011;42627;42.646;23.642;2024-01-11T04:07:45;20.30;;;8.20;;
56752;SDS011;42627;42.646;23.642;2024-01-11T04:11:57;14.17;;;7.10;;
56752;SDS011;42627;42.646;23.642;2024-01-11T04:13:58;26.23;;;10.57;;
56752;SDS011;42627;42.646;23.642;2024-01-11T04:15:59;18.00;;;9.17;;
56752;SDS011;42627;42.646;23.642;2024-01-11T04:18:04;26.80;;;8.50;;
56752;SDS011;42627;42.646;23.642;2024-01-11T04:20:06;31.37;;;12.37;;
56752;SDS011;42627;42.646;23.642;2024-01-11T04:22:08;17.83;;;9.73;;
56752;SDS011;42627;42.646;23.642;2024-01-11T04:24:09;21.33;;;9.77;;
56752;SDS011;42627;42.646;23.642;2024-01-11T04:26:15;13.07;;;9.10;;
56752;SDS011;42627;42.646;23.642;2024-01-11T04:28:17;14.50;;;5.40;;
56752;SDS011;42627;42.646;23.642;2024-01-11T04:30:18;13.53;;;6.77;;
56752;SDS011;42627;42.646;23.642;2024-01-11T04:32:19;11.70;;;6.30;;
56752;SDS011;42627;42.646;23.642;2024-01-11T04:34:20;11.20;;;6.63;;
56752;SDS011;42627;42.646;23.642;2024-01-11T04:36:21;12.83;;;6.50;;
56752;SDS011;42627;42.646;23.642;2024-01-11T04:38:22;15.00;;;6.37;;
56752;SDS011;42627;42.646;23.642;2024-01-11T04:40:23;14.10;;;5.70;;
56752;SDS011;42627;42.646;23.642;2024-01-11T04:42:24;14.87;;;7.33;;
56752;SDS011;42627;42.646;23.642;2024-01-11T04:44:26;14.27;;;6.57;;
56752;SDS011;42627;42.646;23.642;2024-01-11T04:46:27;11.63;;;6.03;;
56752;SDS011;42627;42.646;23.642;2024-01-11T04:48:28;12.80;;;5.50;;
56752;SDS011;42627;42.646;23.642;2024-01-11T04:50:29;15.43;;;5.77;;
56752;SDS011;42627;42.646;23.642;2024-01-11T04:52:30;12.97;;;6.43;;
56752;SDS011;42627;42.646;23.642;2024-01-11T04:54:31;16.27;;;7.87;;
56752;SDS011;42627;42.646;23.642;2024-01-11T04:56:32;11.97;;;7.87;;
56752;SDS011;42627;42.646;23.642;2024-01-11T04:58:34;29.57;;;12.83;;
56752;SDS011;42627;42.646;23.642;2024-01-11T05:00:35;37.13;;;18.37;;
56752;SDS011;42627;42.646;23.642;2024-01-11T05:02:36;45.97;;;21.97;;
56752;SDS011;42627;42.646;23.642;2024-01-11T05:04:37;27.33;;;13.77;;
56752;SDS011;42627;42.646;23.642;2024-01-11T05:06:38;26.13;;;13.43;;
56752;SDS011;42627;42.646;23.642;2024-01-11T05:08:39;18.97;;;8.47;;
56752;SDS011;42627;42.646;23.642;2024-01-11T05:10:40;16.53;;;7.53;;
56752;SDS011;42627;42.646;23.642;2024-01-11T05:12:42;15.40;;;6.67;;
56752;SDS011;42627;42.646;23.642;2024-01-11T05:16:44;43.60;;;17.70;;
56752;SDS011;42627;42.646;23.642;2024-01-11T05:18:45;39.63;;;18.83;;
56752;SDS011;42627;42.646;23.642;2024-01-11T05:20:46;30.43;;;12.63;;
56752;SDS011;42627;42.646;23.642;2024-01-11T05:22:47;22.23;;;9.73;;
56752;SDS011;42627;42.646;23.642;2024-01-11T05:24:48;17.03;;;7.80;;
56752;SDS011;42627;42.646;23.642;2024-01-11T05:26:49;20.40;;;7.97;;
56752;SDS011;42627;42.646;23.642;2024-01-11T05:28:51;16.93;;;8.27;;
56752;SDS011;42627;42.646;23.642;2024-01-11T05:30:52;11.60;;;8.43;;
56752;SDS011;42627;42.646;23.642;2024-01-11T05:35:30;23.17;;;8.80;;
56752;SDS011;42627;42.646;23.642;2024-01-11T05:37:31;16.20;;;8.50;;
56752;SDS011;42627;42.646;23.642;2024-01-11T05:39:33;15.40;;;6.97;;
56752;SDS011;42627;42.646;23.642;2024-01-11T05:41:34;15.17;;;7.10;;
56752;SDS011;42627;42.646;23.642;2024-01-11T05:43:35;17.33;;;7.90;;
56752;SDS011;42627;42.646;23.642;2024-01-11T05:45:36;16.70;;;6.43;;
56752;SDS011;42627;42.646;23.642;2024-01-11T05:47:37;11.93;;;7.03;;
56752;SDS011;42627;42.646;23.642;2024-01-11T05:49:38;9.17;;;5.47;;
56752;SDS011;42627;42.646;23.642;2024-01-11T05:51:39;11.20;;;6.57;;
56752;SDS011;42627;42.646;23.642;2024-01-11T05:53:40;10.37;;;5.57;;
56752;SDS011;42627;42.646;23.642;2024-01-11T05:55:41;11.17;;;5.10;;
56752;SDS011;42627;42.646;23.642;2024-01-11T05:57:42;10.20;;;5.73;;
56752;SDS011;42627;42.646;23.642;2024-01-11T05:59:44;10.50;;;6.20;;
56752;SDS011;42627;42.646;23.642;2024-01-11T06:01:45;13.80;;;7.00;;
56752;SDS011;42627;42.646;23.642;2024-01-11T06:03:46;17.83;;;8.30;;
56752;SDS011;42627;42.646;23.642;2024-01-11T06:05:47;13.50;;;6.00;;
56752;SDS011;42627;42.646;23.642;2024-01-11T06:07:48;17.27;;;7.70;;
56752;SDS011;42627;42.646;23.642;2024-01-11T06:09:49;14.23;;;7.43;;
56752;SDS011;42627;42.646;23.642;2024-01-11T06:11:50;11.30;;;6.30;;
56752;SDS011;42627;42.646;23.642;2024-01-11T06:13:51;14.30;;;6.70;;
56752;SDS011;42627;42.646;23.642;2024-01-11T06:16:00;12.63;;;6.63;;
56752;SDS011;42627;42.646;23.642;2024-01-11T06:24:34;34.00;;;13.50;;
56752;SDS011;42627;42.646;23.642;2024-01-11T06:26:35;31.70;;;15.03;;
56752;SDS011;42627;42.646;23.642;2024-01-11T06:28:36;40.83;;;15.67;;
56752;SDS011;42627;42.646;23.642;2024-01-11T06:35:47;23.00;;;12.80;;
56752;SDS011;42627;42.646;23.642;2024-01-11T06:37:48;18.00;;;9.23;;
56752;SDS011;42627;42.646;23.642;2024-01-11T06:39:51;31.10;;;12.73;;
56752;SDS011;42627;42.646;23.642;2024-01-11T06:41:52;28.03;;;12.90;;
56752;SDS011;42627;42.646;23.642;2024-01-11T06:43:53;23.70;;;11.70;;
56752;SDS011;42627;42.646;23.642;2024-01-11T06:45:54;26.13;;;11.07;;
56752;SDS011;42627;42.646;23.642;2024-01-11T06:47:55;31.80;;;13.93;;
56752;SDS011;42627;42.646;23.642;2024-01-11T06:49:57;33.77;;;15.87;;
56752;SDS011;42627;42.646;23.642;2024-01-11T06:52:01;27.50;;;12.77;;
56752;SDS011;42627;42.646;23.642;2024-01-11T06:54:02;22.60;;;9.83;;
56752;SDS011;42627;42.646;23.642;2024-01-11T06:56:12;22.47;;;10.40;;
56752;SDS011;42627;42.646;23.642;2024-01-11T06:58:15;22.40;;;11.67;;
56752;SDS011;42627;42.646;23.642;2024-01-11T07:00:16;25.03;;;13.70;;
56752;SDS011;42627;42.646;23.642;2024-01-11T07:02:17;33.10;;;12.47;;
56752;SDS011;42627;42.646;23.642;2024-01-11T07:04:18;18.63;;;9.60;;
56752;SDS011;42627;42.646;23.642;2024-01-11T07:06:20;15.37;;;8.27;;
56752;SDS011;42627;42.646;23.642;2024-01-11T07:08:21;19.07;;;9.07;;
56752;SDS011;42627;42.646;23.642;2024-01-11T07:10:22;23.17;;;10.57;;
56752;SDS011;42627;42.646;23.642;2024-01-11T07:12:23;24.60;;;10.80;;
56752;SDS011;42627;42.646;23.642;2024-01-11T07:14:25;21.70;;;11.97;;
56752;SDS011;42627;42.646;23.642;2024-01-11T07:16:26;27.53;;;15.40;;
56752;SDS011;42627;42.646;23.642;2024-01-11T07:18:27;24.00;;;12.17;;
56752;SDS011;42627;42.646;23.642;2024-01-11T07:20:28;30.07;;;13.67;;
56752;SDS011;42627;42.646;23.642;2024-01-11T07:22:29;22.13;;;12.03;;
56752;SDS011;42627;42.646;23.642;2024-01-11T07:24:31;26.13;;;12.67;;
56752;SDS011;42627;42.646;23.642;2024-01-11T07:26:37;32.43;;;14.73;;
56752;SDS011;42627;42.646;23.642;2024-01-11T07:28:38;33.00;;;15.33;;
56752;SDS011;42627;42.646;23.642;2024-01-11T07:30:39;29.00;;;11.73;;
56752;SDS011;42627;42.646;23.642;2024-01-11T07:32:40;23.77;;;11.70;;
56752;SDS011;42627;42.646;23.642;2024-01-11T07:34:45;27.43;;;13.90;;
56752;SDS011;42627;42.646;23.642;2024-01-11T07:36:46;29.03;;;12.03;;
56752;SDS011;42627;42.646;23.642;2024-01-11T07:38:47;22.57;;;10.17;;
56752;SDS011;42627;42.646;23.642;2024-01-11T07:40:48;19.27;;;10.27;;
56752;SDS011;42627;42.646;23.642;2024-01-11T07:42:49;22.07;;;11.50;;
56752;SDS011;42627;42.646;23.642;2024-01-11T07:44:51;20.33;;;9.00;;
56752;SDS011;42627;42.646;23.642;2024-01-11T07:46:52;18.53;;;9.97;;
56752;SDS011;42627;42.646;23.642;2024-01-11T07:48:53;24.67;;;10.60;;
56752;SDS011;42627;42.646;23.642;2024-01-11T07:50:54;20.43;;;9.37;;
56752;SDS011;42627;42.646;23.642;2024-01-11T07:52:55;25.77;;;10.33;;
56752;SDS011;42627;42.646;23.642;2024-01-11T07:54:56;26.53;;;10.93;;
56752;SDS011;42627;42.646;23.642;2024-01-11T07:57:00;25.87;;;10.50;;
56752;SDS011;42627;42.646;23.642;2024-01-11T07:59:03;28.60;;;12.77;;
56752;SDS011;42627;42.646;23.642;2024-01-11T08:01:04;27.97;;;12.17;;
56752;SDS011;42627;42.646;23.642;2024-01-11T08:03:05;35.73;;;15.07;;
56752;SDS011;42627;42.646;23.642;2024-01-11T08:05:07;32.13;;;18.80;;
56752;SDS011;42627;42.646;23.642;2024-01-11T08:07:08;28.77;;;13.63;;
56752;SDS011;42627;42.646;23.642;2024-01-11T08:11:20;32.93;;;13.77;;
56752;SDS011;42627;42.646;23.642;2024-01-11T08:13:21;28.33;;;13.15;;
56752;SDS011;42627;42.646;23.642;2024-01-11T08:15:23;25.63;;;13.13;;
56752;SDS011;42627;42.646;23.642;2024-01-11T08:17:31;30.20;;;16.98;;
56752;SDS011;42627;42.646;23.642;2024-01-11T08:19:36;36.42;;;18.10;;
56752;SDS011;42627;42.646;23.642;2024-01-11T08:22:22;32.40;;;16.10;;
56752;SDS011;42627;42.646;23.642;2024-01-11T08:24:56;46.15;;;18.20;;
56752;SDS011;42627;42.646;23.642;2024-01-11T08:31:28;32.45;;;15.27;;
56752;SDS011;42627;42.646;23.642;2024-01-11T08:33:29;39.05;;;16.65;;
56752;SDS011;42627;42.646;23.642;2024-01-11T08:35:31;30.27;;;15.02;;
56752;SDS011;42627;42.646;23.642;2024-01-11T08:37:32;30.25;;;17.20;;
56752;SDS011;42627;42.646;23.642;2024-01-11T08:39:33;35.47;;;14.07;;
56752;SDS011;42627;42.646;23.642;2024-01-11T08:41:36;23.02;;;11.75;;
56752;SDS011;42627;42.646;23.642;2024-01-11T08:43:37;26.88;;;11.43;;
56752;SDS011;42627;42.646;23.642;2024-01-11T08:45:39;28.73;;;14.23;;
56752;SDS011;42627;42.646;23.642;2024-01-11T08:47:40;38.97;;;14.52;;
56752;SDS011;42627;42.646;23.642;2024-01-11T08:49:41;32.92;;;13.38;;
56752;SDS011;42627;42.646;23.642;2024-01-11T08:51:43;26.83;;;14.50;;
56752;SDS011;42627;42.646;23.642;2024-01-11T08:53:44;25.15;;;12.70;;
56752;SDS011;42627;42.646;23.642;2024-01-11T08:55:45;25.58;;;13.02;;
56752;SDS011;42627;42.646;23.642;2024-01-11T08:57:46;31.88;;;12.18;;
56752;SDS011;42627;42.646;23.642;2024-01-11T08:59:47;32.42;;;12.68;;
56752;SDS011;42627;42.646;23.642;2024-01-11T09:01:50;23.98;;;10.50;;
56752;SDS011;42627;42.646;23.642;2024-01-11T09:03:52;30.13;;;11.65;;
56752;SDS011;42627;42.646;23.642;2024-01-11T09:05:53;23.98;;;11.38;;
56752;SDS011;42627;42.646;23.642;2024-01-11T09:07:57;29.98;;;11.52;;
56752;SDS011;42627;42.646;23.642;2024-01-11T09:09:58;26.90;;;11.55;;
56752;SDS011;42627;42.646;23.642;2024-01-11T09:11:59;19.00;;;10.18;;
56752;SDS011;42627;42.646;23.642;2024-01-11T09:14:00;22.88;;;9.35;;
56752;SDS011;42627;42.646;23.642;2024-01-11T09:16:03;21.73;;;10.50;;
56752;SDS011;42627;42.646;23.642;2024-01-11T09:18:04;25.17;;;9.40;;
56752;SDS011;42627;42.646;23.642;2024-01-11T09:20:05;23.20;;;10.60;;
56752;SDS011;42627;42.646;23.642;2024-01-11T09:22:07;18.23;;;9.25;;
56752;SDS011;42627;42.646;23.642;2024-01-11T09:24:10;26.95;;;10.18;;
56752;SDS011;42627;42.646;23.642;2024-01-11T09:26:11;21.05;;;10.82;;
56752;SDS011;42627;42.646;23.642;2024-01-11T09:28:13;22.58;;;11.38;;
56752;SDS011;42627;42.646;23.642;2024-01-11T09:30:15;26.38;;;10.63;;
56752;SDS011;42627;42.646;23.642;2024-01-11T09:32:16;20.73;;;10.48;;
56752;SDS011;42627;42.646;23.642;2024-01-11T09:34:23;23.42;;;11.02;;
56752;SDS011;42627;42.646;23.642;2024-01-11T09:36:24;21.58;;;11.82;;
56752;SDS011;42627;42.646;23.642;2024-01-11T09:38:26;24.20;;;12.05;;
56752;SDS011;42627;42.646;23.642;2024-01-11T09:40:27;24.73;;;9.90;;
56752;SDS011;42627;42.646;23.642;2024-01-11T09:42:28;23.38;;;10.88;;
56752;SDS011;42627;42.646;23.642;2024-01-11T09:44:29;27.13;;;11.15;;
56752;SDS011;42627;42.646;23.642;2024-01-11T09:46:31;23.45;;;9.63;;
56752;SDS011;42627;42.646;23.642;2024-01-11T09:50:40;24.70;;;12.55;;
56752;SDS011;42627;42.646;23.642;2024-01-11T09:52:41;21.52;;;10.70;;
56752;SDS011;42627;42.646;23.642;2024-01-11T09:54:45;44.78;;;16.15;;
56752;SDS011;42627;42.646;23.642;2024-01-11T09:56:46;28.13;;;10.13;;
56752;SDS011;42627;42.646;23.642;2024-01-11T09:58:50;25.25;;;9.38;;
56752;SDS011;42627;42.646;23.642;2024-01-11T10:00:55;45.20;;;14.48;;
56752;SDS011;42627;42.646;23.642;2024-01-11T10:02:56;19.35;;;10.23;;
56752;SDS011;42627;42.646;23.642;2024-01-11T10:04:57;22.42;;;9.85;;
56752;SDS011;42627;42.646;23.642;2024-01-11T10:06:58;20.85;;;10.45;;
56752;SDS011;42627;42.646;23.642;2024-01-11T10:09:02;14.57;;;9.40;;
56752;SDS011;42627;42.646;23.642;2024-01-11T10:11:03;20.80;;;9.35;;
56752;SDS011;42627;42.646;23.642;2024-01-11T10:13:05;20.85;;;8.65;;
56752;SDS011;42627;42.646;23.642;2024-01-11T10:15:06;19.13;;;9.32;;
56752;SDS011;42627;42.646;23.642;2024-01-11T10:17:11;21.33;;;8.80;;
56752;SDS011;42627;42.646;23.642;2024-01-11T10:19:12;15.68;;;8.57;;
56752;SDS011;42627;42.646;23.642;2024-01-11T10:21:15;21.17;;;10.35;;
56752;SDS011;42627;42.646;23.642;2024-01-11T10:25:37;18.45;;;9.43;;
56752;SDS011;42627;42.646;23.642;2024-01-11T10:27:42;16.52;;;8.57;;
56752;SDS011;42627;42.646;23.642;2024-01-11T10:29:44;15.95;;;9.40;;
56752;SDS011;42627;42.646;23.642;2024-01-11T10:31:46;16.50;;;9.05;;
56752;SDS011;42627;42.646;23.642;2024-01-11T10:33:47;17.15;;;9.23;;
56752;SDS011;42627;42.646;23.642;2024-01-11T10:35:48;18.67;;;8.90;;
56752;SDS011;42627;42.646;23.642;2024-01-11T10:37:50;18.73;;;10.15;;
56752;SDS011;42627;42.646;23.642;2024-01-11T10:39:54;22.30;;;10.07;;
56752;SDS011;42627;42.646;23.642;2024-01-11T10:42:05;23.27;;;11.05;;
56752;SDS011;42627;42.646;23.642;2024-01-11T10:44:24;21.67;;;10.55;;
56752;SDS011;42627;42.646;23.642;2024-01-11T10:46:28;20.65;;;9.00;;
56752;SDS011;42627;42.646;23.642;2024-01-11T10:48:32;21.63;;;11.32;;
56752;SDS011;42627;42.646;23.642;2024-01-11T10:50:34;23.37;;;10.47;;
56752;SDS011;42627;42.646;23.642;2024-01-11T10:54:41;18.65;;;8.02;;
56752;SDS011;42627;42.646;23.642;2024-01-11T10:56:42;16.88;;;7.80;;
56752;SDS011;42627;42.646;23.642;2024-01-11T10:58:44;24.98;;;10.80;;
56752;SDS011;42627;42.646;23.642;2024-01-11T11:00:46;18.73;;;9.05;;
56752;SDS011;42627;42.646;23.642;2024-01-11T11:02:48;19.55;;;7.75;;
56752;SDS011;42627;42.646;23.642;2024-01-11T11:04:51;16.05;;;7.47;;
56752;SDS011;42627;42.646;23.642;2024-01-11T11:06:57;24.05;;;10.63;;
56752;SDS011;42627;42.646;23.642;2024-01-11T11:08:58;19.58;;;9.82;;
56752;SDS011;42627;42.646;23.642;2024-01-11T11:11:01;29.33;;;12.20;;
56752;SDS011;42627;42.646;23.642;2024-01-11T11:13:05;22.27;;;10.07;;
56752;SDS011;42627;42.646;23.642;2024-01-11T11:15:06;22.55;;;10.75;;
56752;SDS011;42627;42.646;23.642;2024-01-11T11:17:07;22.60;;;10.18;;
56752;SDS011;42627;42.646;23.642;2024-01-11T11:19:09;17.48;;;9.85;;
56752;SDS011;42627;42.646;23.642;2024-01-11T11:21:10;22.02;;;9.93;;
56752;SDS011;42627;42.646;23.642;2024-01-11T11:23:12;21.75;;;10.10;;
56752;SDS011;42627;42.646;23.642;2024-01-11T11:25:23;23.48;;;11.02;;
56752;SDS011;42627;42.646;23.642;2024-01-11T11:27:27;24.42;;;11.73;;
56752;SDS011;42627;42.646;23.642;2024-01-11T11:29:29;22.52;;;10.70;;
56752;SDS011;42627;42.646;23.642;2024-01-11T11:31:37;20.77;;;10.68;;
56752;SDS011;42627;42.646;23.642;2024-01-11T11:33:38;23.40;;;11.25;;
56752;SDS011;42627;42.646;23.642;2024-01-11T11:35:39;20.90;;;10.35;;
56752;SDS011;42627;42.646;23.642;2024-01-11T11:37:40;28.45;;;10.65;;
56752;SDS011;42627;42.646;23.642;2024-01-11T11:39:43;26.25;;;9.73;;
56752;SDS011;42627;42.646;23.642;2024-01-11T11:41:44;25.48;;;10.48;;
56752;SDS011;42627;42.646;23.642;2024-01-11T11:43:47;17.70;;;9.35;;
56752;SDS011;42627;42.646;23.642;2024-01-11T11:45:49;24.83;;;10.10;;
56752;SDS011;42627;42.646;23.642;2024-01-11T11:47:50;22.48;;;11.07;;
56752;SDS011;42627;42.646;23.642;2024-01-11T11:50:10;22.98;;;11.43;;
56752;SDS011;42627;42.646;23.642;2024-01-11T11:52:15;21.25;;;10.32;;
56752;SDS011;42627;42.646;23.642;2024-01-11T11:54:16;19.92;;;10.20;;
56752;SDS011;42627;42.646;23.642;2024-01-11T11:56:22;19.38;;;9.73;;
56752;SDS011;42627;42.646;23.642;2024-01-11T11:58:23;17.90;;;8.63;;
56752;SDS011;42627;42.646;23.642;2024-01-11T12:00:34;23.00;;;10.93;;
56752;SDS011;42627;42.646;23.642;2024-01-11T12:02:39;28.17;;;11.75;;
56752;SDS011;42627;42.646;23.642;2024-01-11T12:04:48;18.88;;;9.55;;
56752;SDS011;42627;42.646;23.642;2024-01-11T12:06:49;22.73;;;10.90;;
56752;SDS011;42627;42.646;23.642;2024-01-11T12:08:51;18.73;;;10.00;;
56752;SDS011;42627;42.646;23.642;2024-01-11T12:10:53;23.02;;;10.93;;
56752;SDS011;42627;42.646;23.642;2024-01-11T12:12:54;21.10;;;10.18;;
56752;SDS011;42627;42.646;23.642;2024-01-11T12:14:55;16.75;;;8.95;;
56752;SDS011;42627;42.646;23.642;2024-01-11T12:16:58;18.10;;;10.02;;
56752;SDS011;42627;42.646;23.642;2024-01-11T12:19:01;18.10;;;9.18;;
56752;SDS011;42627;42.646;23.642;2024-01-11T12:21:02;21.10;;;9.52;;
56752;SDS011;42627;42.646;23.642;2024-01-11T12:23:04;19.00;;;8.70;;
56752;SDS011;42627;42.646;23.642;2024-01-11T12:25:05;20.05;;;10.68;;
56752;SDS011;42627;42.646;23.642;2024-01-11T12:27:06;17.60;;;10.68;;